Time;durP1;ratioP1;P1;durP2;ratioP2;P2;SDS_P1;SDS_P2;PMS_P1;PMS_P2;Temp;Humidity;BMP_temperature;BMP_pressure;BME280_temperature;BME280_humidity;BME280_pressure;Samples;Min_cycle;Max_cycle;Signal;HPM_P1;HPM_P2
2021/01/23 00:01:42;;;;;;;41.20;19.48;;;;;;;3.93;74.33;98798.58;1721851;83;21158;-75
2021/01/23 00:04:10;;;;;;;49.77;20.55;;;;;;;3.91;74.40;98793.95;1721832;83;21224;-75
2021/01/23 00:06:37;;;;;;;46.85;21.80;;;;;;;3.88;74.45;98775.34;1729503;81;21152;-75
2021/01/23 00:09:04;;;;;;;47.60;19.30;;;;;;;3.88;74.50;98770.07;1720249;83;21207;-75
2021/01/23 00:11:32;;;;;;;44.35;18.42;;;;;;;3.86;74.55;98770.75;1720429;83;21156;-75
2021/01/23 00:13:59;;;;;;;41.70;15.95;;;;;;;3.87;74.60;98774.21;1720214;83;21152;-75
2021/01/23 00:16:26;;;;;;;39.78;15.85;;;;;;;3.86;74.65;98778.66;1720261;83;21645;-75
2021/01/23 00:18:54;;;;;;;36.90;15.83;;;;;;;3.88;74.70;98786.38;1720275;83;21177;-75
2021/01/23 00:21:21;;;;;;;36.42;14.55;;;;;;;3.87;74.75;98792.14;1720245;83;21183;-75
2021/01/23 00:23:48;;;;;;;35.40;14.83;;;;;;;3.87;74.80;98796.09;1720408;83;21223;-75
2021/01/23 00:26:15;;;;;;;32.98;12.98;;;;;;;3.91;74.87;98793.95;1714731;82;21210;-75
2021/01/23 00:28:43;;;;;;;30.97;12.75;;;;;;;3.98;74.95;98792.30;1701668;83;21180;-75
2021/01/23 00:31:10;;;;;;;24.95;11.60;;;;;;;4.04;74.99;98802.20;1733397;82;21156;-75
2021/01/23 00:33:37;;;;;;;25.10;11.15;;;;;;;4.10;75.05;98797.56;1708319;82;22032;-75
2021/01/23 00:36:05;;;;;;;29.05;10.35;;;;;;;4.15;75.10;98799.18;1701075;84;21630;-75
2021/01/23 00:38:32;;;;;;;24.30;9.83;;;;;;;4.20;75.14;98794.73;1701053;84;21190;-75
2021/01/23 00:41:00;;;;;;;22.73;10.28;;;;;;;4.22;75.18;98792.23;1701902;82;21158;-78
2021/01/23 00:43:27;;;;;;;34.33;14.83;;;;;;;4.23;75.20;98792.58;1701120;84;21174;-77
2021/01/23 00:45:55;;;;;;;52.75;18.12;;;;;;;4.17;75.22;98795.90;1724804;82;21195;-74
2021/01/23 00:48:22;;;;;;;77.30;25.90;;;;;;;4.09;75.25;98793.76;1751835;81;21176;-74
2021/01/23 00:50:49;;;;;;;73.12;27.98;;;;;;;3.99;75.29;98797.91;1748014;82;21168;-74
2021/01/23 00:53:16;;;;;;;99.17;37.30;;;;;;;4.01;75.38;98799.91;1736081;82;21159;-74
2021/01/23 00:55:44;;;;;;;97.00;34.35;;;;;;;4.11;75.42;98801.86;1735821;82;21194;-74
2021/01/23 00:58:12;;;;;;;82.33;32.20;;;;;;;4.19;75.43;98805.77;1736039;82;22062;-74
2021/01/23 01:00:40;;;;;;;53.50;19.70;;;;;;;4.13;75.48;98798.54;1736001;82;21626;-74
2021/01/23 01:03:07;;;;;;;58.52;21.75;;;;;;;4.11;75.54;98792.62;1736186;82;21589;-74
2021/01/23 01:05:34;;;;;;;57.85;24.15;;;;;;;4.08;75.55;98790.33;1735984;82;21210;-74
2021/01/23 01:08:02;;;;;;;98.00;35.20;;;;;;;3.97;75.61;98792.81;1723981;82;21160;-74
2021/01/23 01:10:29;;;;;;;45.50;19.27;;;;;;;3.90;75.67;98794.97;1721617;83;21204;-74
2021/01/23 01:12:56;;;;;;;42.60;18.82;;;;;;;3.87;75.67;98803.22;1717181;82;21781;-74
2021/01/23 01:15:24;;;;;;;67.08;24.25;;;;;;;3.91;75.70;98784.73;1717537;81;21204;-74
2021/01/23 01:17:51;;;;;;;70.08;25.75;;;;;;;3.96;75.70;98777.98;1730976;81;21163;-74
2021/01/23 01:20:18;;;;;;;60.23;23.42;;;;;;;3.90;75.70;98781.78;1746713;81;21120;-74
2021/01/23 01:22:46;;;;;;;55.70;22.70;;;;;;;3.82;75.77;98785.25;1743403;81;21212;-74
2021/01/23 01:25:13;;;;;;;41.60;17.60;;;;;;;3.83;75.82;98789.54;1745975;81;21596;-74
2021/01/23 01:27:40;;;;;;;39.78;17.73;;;;;;;3.82;75.86;98791.84;1757564;81;21188;-74
2021/01/23 01:30:09;;;;;;;46.88;19.52;;;;;;;3.78;75.86;98791.02;1741550;82;21222;-74
2021/01/23 01:32:36;;;;;;;49.27;20.72;;;;;;;3.64;75.88;98789.05;1767892;81;21159;-74
2021/01/23 01:35:05;;;;;;;57.17;21.30;;;;;;;3.38;75.89;98790.52;1768295;81;21918;-74
2021/01/23 01:37:32;;;;;;;52.88;22.80;;;;;;;3.34;75.97;98786.06;1760522;81;21173;-74
2021/01/23 01:40:01;;;;;;;60.95;24.92;;;;;;;3.21;76.02;98785.73;1741630;81;21639;-74
2021/01/23 01:42:29;;;;;;;63.73;27.40;;;;;;;3.16;76.06;98799.90;1742016;81;21170;-74
2021/01/23 01:44:56;;;;;;;65.70;27.60;;;;;;;3.22;76.10;98791.83;1742164;82;21134;-74
2021/01/23 01:47:24;;;;;;;54.85;22.65;;;;;;;3.27;76.10;98782.44;1742090;82;21196;-74
2021/01/23 01:49:51;;;;;;;53.50;21.60;;;;;;;3.17;76.14;98773.87;1742117;82;21181;-74
2021/01/23 01:52:18;;;;;;;59.40;23.00;;;;;;;3.10;76.20;98764.17;1742099;82;21161;-74
2021/01/23 01:54:46;;;;;;;53.87;21.55;;;;;;;3.06;76.23;98768.94;1742216;82;21197;-74
2021/01/23 01:57:13;;;;;;;55.70;22.25;;;;;;;2.98;76.25;98759.70;1742107;82;21150;-74
2021/01/23 01:59:40;;;;;;;41.18;16.35;;;;;;;2.98;76.30;98751.80;1742167;82;21739;-74
2021/01/23 02:02:56;;;;;;;37.53;16.70;;;;;;;3.02;76.33;98759.72;1742050;82;21158;-73
2021/01/23 02:05:41;;;;;;;44.48;16.75;;;;;;;3.05;76.32;98752.80;1741931;82;21234;-73
2021/01/23 02:08:29;;;;;;;35.35;14.18;;;;;;;3.01;76.37;98743.58;1742366;82;21137;-75
2021/01/23 02:11:11;;;;;;;42.08;14.50;;;;;;;3.00;76.41;98737.48;1742531;81;21205;-73
2021/01/23 02:13:57;;;;;;;54.13;20.32;;;;;;;3.02;76.43;98741.28;1742161;81;22108;-73
2021/01/23 02:16:34;;;;;;;40.95;16.75;;;;;;;3.05;76.45;98738.31;1741640;81;21201;-73
2021/01/23 02:19:30;;;;;;;44.50;17.00;;;;;;;2.98;76.47;98737.33;1741924;82;21587;-74
2021/01/23 02:22:12;;;;;;;30.05;13.80;;;;;;;2.93;76.52;98748.82;1742195;82;21173;-74
2021/01/23 02:24:39;;;;;;;39.18;15.68;;;;;;;2.87;76.55;98761.32;1739641;82;21126;-74
2021/01/23 02:27:21;;;;;;;39.20;16.27;;;;;;;2.83;76.57;98762.62;1739085;81;21186;-74
2021/01/23 02:30:12;;;;;;;45.17;17.65;;;;;;;2.83;76.57;98757.36;1737401;82;21185;-74
2021/01/23 02:32:39;;;;;;;21.75;10.32;;;;;;;2.83;76.61;98754.73;1742046;82;21154;-74
2021/01/23 02:35:09;;;;;;;35.63;14.60;;;;;;;2.86;76.65;98754.40;1742082;82;21186;-74
2021/01/23 02:37:38;;;;;;;30.75;13.60;;;;;;;2.90;76.73;98746.03;1739273;82;21186;-74
2021/01/23 02:40:06;;;;;;;21.00;9.80;;;;;;;2.96;76.77;98751.13;1742029;82;21205;-74
2021/01/23 02:42:34;;;;;;;26.97;10.75;;;;;;;2.99;76.83;98754.77;1742115;82;21217;-74
2021/01/23 02:45:08;;;;;;;32.45;13.38;;;;;;;2.99;76.85;98752.94;1742012;82;21134;-74
2021/01/23 02:47:36;;;;;;;23.00;10.95;;;;;;;2.98;76.89;98763.66;1741510;81;21189;-74
2021/01/23 02:50:05;;;;;;;26.20;11.80;;;;;;;2.95;76.93;98752.96;1742028;82;21166;-74
2021/01/23 02:52:44;;;;;;;23.90;10.72;;;;;;;2.93;76.98;98748.33;1742110;82;21595;-74
2021/01/23 02:55:15;;;;;;;27.67;12.00;;;;;;;2.98;77.02;98742.59;1741479;82;21189;-74
2021/01/23 02:57:43;;;;;;;27.70;12.43;;;;;;;3.01;77.08;98739.62;1741880;82;21175;-74
2021/01/23 03:00:11;;;;;;;21.35;9.78;;;;;;;3.07;77.10;98743.41;1742177;82;21129;-74
2021/01/23 03:02:49;;;;;;;24.27;10.45;;;;;;;3.08;77.14;98751.16;1742026;82;21559;-74
2021/01/23 03:05:17;;;;;;;21.57;9.53;;;;;;;3.11;77.14;98754.77;1742016;82;21599;-74
2021/01/23 03:07:45;;;;;;;26.57;10.45;;;;;;;3.15;77.15;98748.20;1741908;82;21163;-74
2021/01/23 03:10:13;;;;;;;22.73;10.38;;;;;;;3.18;77.14;98746.55;1742004;82;21158;-74
2021/01/23 03:12:41;;;;;;;20.45;9.68;;;;;;;3.17;77.20;98747.53;1742234;82;21150;-74
2021/01/23 03:15:09;;;;;;;22.20;9.95;;;;;;;3.16;77.22;98743.27;1773389;80;21642;-74
2021/01/23 03:17:37;;;;;;;21.95;8.70;;;;;;;3.23;77.23;98736.36;1773625;80;21152;-74
2021/01/23 03:20:05;;;;;;;22.80;10.60;;;;;;;3.25;77.25;98734.86;1771173;80;21270;-74
2021/01/23 03:22:33;;;;;;;20.75;9.63;;;;;;;3.26;77.26;98733.39;1735808;82;21155;-74
2021/01/23 03:25:00;;;;;;;26.33;9.58;;;;;;;3.23;77.25;98732.41;1757302;81;21148;-74
2021/01/23 03:27:27;;;;;;;19.80;8.85;;;;;;;3.20;77.27;98736.66;1735846;82;21151;-73
2021/01/23 03:29:54;;;;;;;22.93;8.53;;;;;;;3.21;77.29;98724.32;1758176;81;21744;-73
2021/01/23 03:32:22;;;;;;;18.17;8.25;;;;;;;3.20;77.27;98715.59;1735830;82;21596;-74
2021/01/23 03:34:49;;;;;;;19.90;9.10;;;;;;;3.16;77.27;98707.72;1754585;81;21579;-74
2021/01/23 03:37:16;;;;;;;23.07;8.85;;;;;;;3.06;77.29;98718.91;1735776;82;21674;-74
2021/01/23 03:39:44;;;;;;;20.90;9.73;;;;;;;3.05;77.29;98730.42;1757449;81;21147;-74
2021/01/23 03:42:11;;;;;;;26.37;10.18;;;;;;;3.14;77.30;98736.01;1735811;82;21203;-74
2021/01/23 03:44:38;;;;;;;34.23;12.23;;;;;;;3.21;77.29;98732.22;1757368;81;21154;-74
2021/01/23 03:47:05;;;;;;;59.23;20.27;;;;;;;3.18;77.29;98749.19;1735926;82;21231;-75
2021/01/23 03:49:33;;;;;;;37.25;16.05;;;;;;;3.15;77.29;98741.62;1757198;81;21139;-75
2021/01/23 03:52:00;;;;;;;42.65;19.30;;;;;;;3.10;77.30;98739.95;1736064;82;21488;-75
2021/01/23 03:54:28;;;;;;;43.00;16.67;;;;;;;3.07;77.32;98738.14;1757418;81;21154;-74
2021/01/23 03:56:55;;;;;;;27.90;13.50;;;;;;;3.00;77.33;98734.02;1735868;82;21183;-74
2021/01/23 03:59:23;;;;;;;42.75;22.98;;;;;;;2.99;77.37;98731.08;1757347;81;21162;-74
2021/01/23 04:01:50;;;;;;;57.20;28.55;;;;;;;3.03;77.42;98720.03;1735880;82;21174;-74
2021/01/23 04:04:17;;;;;;;39.25;19.48;;;;;;;3.04;77.41;98720.86;1757459;81;21127;-75
2021/01/23 04:06:45;;;;;;;28.55;14.58;;;;;;;3.04;77.43;98716.91;1734808;82;22456;-75
2021/01/23 04:09:12;;;;;;;25.90;14.25;;;;;;;3.04;77.44;98712.97;1732762;82;21612;-74
2021/01/23 04:11:40;;;;;;;31.10;12.90;;;;;;;3.01;77.45;98698.81;1732620;82;21163;-74
2021/01/23 04:14:07;;;;;;;18.82;9.08;;;;;;;2.99;77.46;98687.12;1732757;82;21183;-74
2021/01/23 04:16:35;;;;;;;19.70;9.35;;;;;;;2.98;77.49;98677.59;1732723;82;21156;-74
2021/01/23 04:19:02;;;;;;;17.02;8.70;;;;;;;2.99;77.51;98673.16;1732552;82;21581;-75
2021/01/23 04:21:30;;;;;;;16.60;7.85;;;;;;;2.97;77.53;98658.00;1745518;81;21140;-75
2021/01/23 04:23:57;;;;;;;16.15;8.20;;;;;;;2.97;77.56;98652.24;1726680;83;21169;-74
2021/01/23 04:26:24;;;;;;;19.50;9.65;;;;;;;2.95;77.56;98641.06;1726816;83;21181;-74
2021/01/23 04:28:52;;;;;;;18.92;9.28;;;;;;;2.94;77.59;98641.22;1726779;83;21137;-74
2021/01/23 04:31:20;;;;;;;18.92;8.98;;;;;;;2.97;77.59;98619.33;1726808;83;21145;-74
2021/01/23 04:33:47;;;;;;;18.70;8.48;;;;;;;3.01;77.60;98618.51;1726594;83;21213;-74
2021/01/23 04:36:14;;;;;;;22.22;9.48;;;;;;;3.03;77.61;98619.98;1726732;83;21188;-74
2021/01/23 04:38:42;;;;;;;19.48;8.80;;;;;;;3.03;77.63;98623.93;1726701;83;21157;-74
2021/01/23 04:41:09;;;;;;;20.95;9.38;;;;;;;3.05;77.64;98615.88;1726613;83;21530;-74
2021/01/23 04:43:37;;;;;;;26.48;10.03;;;;;;;3.06;77.68;98614.90;1726881;83;22063;-74
2021/01/23 04:46:05;;;;;;;17.25;8.25;;;;;;;3.08;77.71;98622.13;1726643;83;21669;-74
2021/01/23 04:48:32;;;;;;;18.32;8.55;;;;;;;3.09;77.74;98614.56;1727571;83;21162;-74
2021/01/23 04:51:00;;;;;;;19.02;9.13;;;;;;;3.09;77.76;98614.56;1726723;83;21153;-75
2021/01/23 04:53:27;;;;;;;20.45;8.80;;;;;;;3.13;77.77;98615.84;1726721;83;21168;-75
2021/01/23 04:55:54;;;;;;;18.57;9.30;;;;;;;3.15;77.79;98603.84;1726642;83;21189;-75
2021/01/23 04:58:22;;;;;;;19.62;8.43;;;;;;;3.15;77.80;98603.35;1726534;83;21166;-75
2021/01/23 05:00:49;;;;;;;20.23;9.05;;;;;;;3.16;77.80;98611.59;1726725;83;21185;-75
2021/01/23 05:03:16;;;;;;;23.95;9.90;;;;;;;3.18;77.81;98610.91;1726665;83;21193;-75
2021/01/23 05:05:44;;;;;;;23.95;10.03;;;;;;;3.20;77.82;98616.03;1726880;83;21201;-75
2021/01/23 05:08:14;;;;;;;20.30;9.63;;;;;;;3.19;77.84;98603.84;1652172;83;22014;-75
2021/01/23 05:10:41;;;;;;;25.70;9.43;;;;;;;3.18;77.85;98603.02;1726307;83;21167;-75
2021/01/23 05:13:14;;;;;;;19.07;9.30;;;;;;;3.17;77.87;98600.05;1726676;83;21124;-75
2021/01/23 05:15:43;;;;;;;22.15;10.28;;;;;;;3.19;77.88;98592.81;1726506;81;21135;-75
2021/01/23 05:18:11;;;;;;;22.45;10.93;;;;;;;3.18;77.91;98587.70;1726739;83;21144;-75
2021/01/23 05:20:45;;;;;;;22.10;10.55;;;;;;;3.16;77.93;98583.94;1723677;83;21172;-76
2021/01/23 05:23:25;;;;;;;20.48;10.15;;;;;;;3.16;77.95;98582.63;1716941;83;21185;-75
2021/01/23 05:25:59;;;;;;;19.77;9.30;;;;;;;3.17;77.98;98567.13;1717083;83;21170;-75
2021/01/23 05:28:37;;;;;;;17.95;9.08;;;;;;;3.16;77.99;98554.97;1716929;83;21193;-75
2021/01/23 05:31:07;;;;;;;15.78;8.63;;;;;;;3.15;78.01;98546.73;1716975;83;21166;-75
2021/01/23 05:33:35;;;;;;;17.75;8.25;;;;;;;3.11;78.05;98537.52;1690333;83;22116;-75
2021/01/23 05:36:12;;;;;;;20.65;9.55;;;;;;;3.05;78.07;98536.88;1716854;83;21583;-75
2021/01/23 05:38:45;;;;;;;16.42;8.35;;;;;;;2.97;78.12;98540.84;1716876;83;21134;-75
2021/01/23 05:41:14;;;;;;;14.03;8.20;;;;;;;2.92;78.17;98526.85;1716910;83;21548;-75
2021/01/23 05:43:46;;;;;;;16.12;7.92;;;;;;;2.90;78.23;98525.39;1716902;83;21142;-75
2021/01/23 05:46:29;;;;;;;18.20;9.43;;;;;;;2.88;78.28;98512.90;1716848;83;21213;-74
2021/01/23 05:48:56;;;;;;;19.15;8.98;;;;;;;2.87;78.32;98513.88;1716878;83;21634;-75
2021/01/23 05:51:24;;;;;;;17.77;9.28;;;;;;;2.82;78.35;98503.84;1716834;83;21635;-75
2021/01/23 05:53:51;;;;;;;17.42;8.50;;;;;;;2.79;78.43;98509.94;1716771;83;21610;-75
2021/01/23 05:56:19;;;;;;;17.00;9.65;;;;;;;2.75;78.48;98500.23;1716848;83;21602;-75
2021/01/23 05:58:46;;;;;;;17.85;9.30;;;;;;;2.76;78.54;98494.48;1716768;83;21181;-75
2021/01/23 06:01:21;;;;;;;20.95;10.32;;;;;;;2.77;78.60;98477.71;1716872;83;21216;-75
2021/01/23 06:03:51;;;;;;;23.85;11.65;;;;;;;2.76;78.62;98469.48;1716664;83;21165;-75
2021/01/23 06:06:18;;;;;;;36.75;18.02;;;;;;;2.75;78.70;98468.66;1717636;83;21618;-75
2021/01/23 06:08:52;;;;;;;33.20;17.77;;;;;;;2.74;78.75;98458.31;1704170;84;21167;-75
2021/01/23 06:11:26;;;;;;;32.63;18.90;;;;;;;2.73;78.80;98452.72;1723329;81;21211;-75
2021/01/23 06:13:56;;;;;;;25.37;14.38;;;;;;;2.71;78.87;98437.60;1709010;84;21199;-75
2021/01/23 06:16:36;;;;;;;27.07;14.13;;;;;;;2.71;78.91;98434.97;1719228;83;21145;-74
2021/01/23 06:19:17;;;;;;;25.12;12.70;;;;;;;2.70;78.97;98434.63;1707589;84;21179;-74
2021/01/23 06:21:49;;;;;;;26.40;13.58;;;;;;;2.69;79.04;98421.97;1733696;81;21143;-74
2021/01/23 06:24:17;;;;;;;32.15;14.68;;;;;;;2.70;79.11;98424.94;1748502;82;21215;-74
2021/01/23 06:26:58;;;;;;;24.43;11.12;;;;;;;2.71;79.17;98427.08;1748479;82;21188;-75
2021/01/23 06:29:41;;;;;;;19.80;9.40;;;;;;;2.70;79.25;98418.36;1748364;82;21136;-75
2021/01/23 06:32:17;;;;;;;16.57;9.68;;;;;;;2.69;79.31;98418.52;1748590;82;21152;-75
2021/01/23 06:34:54;;;;;;;17.73;9.43;;;;;;;2.68;79.37;98411.59;1748417;82;21160;-74
2021/01/23 06:37:29;;;;;;;17.42;9.03;;;;;;;2.67;79.46;98410.80;1749942;80;22151;-75
2021/01/23 06:40:22;;;;;;;21.27;10.78;;;;;;;2.72;79.54;98402.38;1795320;77;29058;-75
2021/01/23 06:42:49;;;;;;;18.52;10.43;;;;;;;2.76;79.61;98390.53;1784122;79;21159;-75
2021/01/23 06:45:27;;;;;;;20.68;10.88;;;;;;;2.78;79.71;98393.83;1788560;79;21580;-75
2021/01/23 06:47:58;;;;;;;43.73;22.00;;;;;;;2.75;79.81;98394.14;1775164;79;21227;-76
2021/01/23 06:50:34;;;;;;;26.68;13.75;;;;;;;2.73;79.91;98382.98;1789525;79;21566;-75
2021/01/23 06:53:02;;;;;;;38.92;18.77;;;;;;;2.71;79.97;98386.29;1765490;81;21144;-75
2021/01/23 06:55:51;;;;;;;41.63;17.87;;;;;;;2.67;80.05;98377.91;1765750;81;21129;-75
2021/01/23 06:58:28;;;;;;;46.25;22.85;;;;;;;2.66;80.10;98377.58;1765342;81;21280;-75
2021/01/23 07:00:59;;;;;;;146.72;62.73;;;;;;;2.65;80.17;98376.42;1765444;81;21191;-76
2021/01/23 07:03:28;;;;;;;127.97;51.90;;;;;;;2.65;80.23;98375.10;1765568;81;21155;-75
2021/01/23 07:06:00;;;;;;;57.50;24.98;;;;;;;2.65;80.28;98365.41;1767686;79;21171;-75
2021/01/23 07:08:32;;;;;;;360.68;163.90;;;;;;;2.67;80.35;98365.25;1783387;79;21152;-76
2021/01/23 07:11:16;;;;;;;58.00;23.07;;;;;;;2.68;80.40;98358.97;1785512;79;21204;-75
2021/01/23 07:14:06;;;;;;;128.42;49.05;;;;;;;2.69;80.47;98356.67;1757236;81;21645;-75
2021/01/23 07:16:36;;;;;;;66.50;28.10;;;;;;;2.69;80.51;98351.41;1727428;83;21609;-76
2021/01/23 07:19:07;;;;;;;43.25;16.25;;;;;;;2.69;80.57;98344.83;1733531;81;21137;-76
2021/01/23 07:21:41;;;;;;;197.05;65.08;;;;;;;2.68;80.63;98340.55;1746202;81;21196;-76
2021/01/23 07:24:09;;;;;;;51.63;28.42;;;;;;;2.67;80.66;98334.98;1726367;83;21205;-75
2021/01/23 07:26:36;;;;;;;50.70;19.85;;;;;;;2.68;80.69;98328.70;1720336;83;21211;-75
2021/01/23 07:29:03;;;;;;;163.65;54.05;;;;;;;2.71;80.74;98327.08;1719283;83;21160;-75
2021/01/23 07:31:31;;;;;;;20.65;12.80;;;;;;;2.72;80.76;98318.17;1724588;82;21569;-76
2021/01/23 07:34:00;;;;;;;26.30;13.10;;;;;;;2.75;80.83;98317.83;1727277;83;21600;-75
2021/01/23 07:36:36;;;;;;;46.30;28.40;;;;;;;2.76;80.93;98313.72;1706237;83;22037;-75
2021/01/23 07:39:16;;;;;;;29.05;15.28;;;;;;;2.85;81.01;98297.41;1852419;77;22142;-76
2021/01/23 07:41:54;;;;;;;28.42;15.65;;;;;;;2.82;81.05;98291.14;1824599;78;21203;-76
2021/01/23 07:44:23;;;;;;;30.65;16.62;;;;;;;2.83;81.11;98290.98;1823942;78;21585;-76
2021/01/23 07:46:49;;;;;;;25.90;15.83;;;;;;;2.82;81.20;98293.28;1824307;78;21211;-76
2021/01/23 07:49:27;;;;;;;27.48;17.37;;;;;;;2.81;81.25;98281.14;1824440;78;21147;-76
2021/01/23 07:52:07;;;;;;;25.88;15.80;;;;;;;2.82;81.31;98276.67;1824527;78;21163;-76
2021/01/23 07:54:33;;;;;;;29.48;16.93;;;;;;;2.83;81.37;98267.79;1824543;78;21656;-76
2021/01/23 07:56:59;;;;;;;25.68;14.75;;;;;;;2.85;81.42;98260.03;1817384;78;21303;-76
2021/01/23 07:59:42;;;;;;;26.90;16.02;;;;;;;2.87;81.50;98255.44;1777741;78;21163;-76
2021/01/23 08:02:10;;;;;;;35.92;19.05;;;;;;;2.90;81.56;98247.67;1756836;81;21132;-76
2021/01/23 08:04:38;;;;;;;35.13;19.90;;;;;;;2.91;81.61;98237.48;1743599;81;21183;-76
2021/01/23 08:07:29;;;;;;;33.08;18.70;;;;;;;2.92;81.66;98244.39;1774335;79;21123;-77
2021/01/23 08:10:14;;;;;;;31.00;18.75;;;;;;;2.91;81.72;98236.16;1725984;81;22136;-76
2021/01/23 08:12:52;;;;;;;62.88;28.25;;;;;;;2.92;81.76;98232.55;1745401;81;21170;-76
2021/01/23 08:15:26;;;;;;;31.80;18.42;;;;;;;2.93;81.80;98228.90;1753830;81;21112;-76
2021/01/23 08:17:53;;;;;;;29.50;17.15;;;;;;;2.95;81.84;98228.24;1725244;82;21197;-76
2021/01/23 08:20:38;;;;;;;31.35;18.85;;;;;;;2.99;81.86;98233.48;1756915;81;21616;-76
2021/01/23 08:23:12;;;;;;;35.65;24.20;;;;;;;3.00;81.90;98224.57;1725080;82;21200;-76
2021/01/23 08:25:50;;;;;;;37.13;20.80;;;;;;;3.04;81.96;98225.86;1756857;81;21227;-76
2021/01/23 08:28:42;;;;;;;36.93;20.48;;;;;;;3.10;81.99;98219.89;1725284;83;21176;-75
2021/01/23 08:31:24;;;;;;;37.08;22.20;;;;;;;3.15;82.03;98214.92;1747476;81;21127;-76
2021/01/23 08:33:56;;;;;;;34.45;20.30;;;;;;;3.18;82.10;98207.98;1721122;83;21220;-76
2021/01/23 08:36:28;;;;;;;45.88;25.25;;;;;;;3.19;82.13;98213.58;1756533;81;21274;-76
2021/01/23 08:39:02;;;;;;;95.87;39.03;;;;;;;3.23;82.16;98199.06;1706571;82;21247;-76
2021/01/23 08:41:29;;;;;;;42.08;25.12;;;;;;;3.25;82.21;98193.11;1734368;82;21179;-76
2021/01/23 08:43:55;;;;;;;51.85;27.22;;;;;;;3.25;82.24;98190.48;1734508;82;21160;-75
2021/01/23 08:46:22;;;;;;;75.75;33.40;;;;;;;3.26;82.26;98197.39;1740627;81;21119;-76
2021/01/23 08:48:50;;;;;;;92.57;38.78;;;;;;;3.26;82.26;98190.80;1738335;81;22236;-76
2021/01/23 08:51:16;;;;;;;78.20;45.35;;;;;;;3.28;82.30;98194.06;1747209;81;21195;-76
2021/01/23 08:53:43;;;;;;;54.50;28.90;;;;;;;3.30;82.30;98189.46;1787381;79;21584;-76
2021/01/23 08:56:11;;;;;;;72.30;33.50;;;;;;;3.34;82.33;98188.08;1787882;80;21560;-76
2021/01/23 08:58:37;;;;;;;110.97;49.10;;;;;;;3.36;82.34;98187.42;1787606;80;21134;-76
2021/01/23 09:01:06;;;;;;;75.90;34.98;;;;;;;3.41;82.37;98180.31;1787272;80;21983;-76
2021/01/23 09:03:33;;;;;;;126.58;54.93;;;;;;;3.46;82.40;98184.03;1787399;80;21163;-75
2021/01/23 09:06:00;;;;;;;76.15;37.25;;;;;;;3.51;82.41;98179.05;1761020;80;21185;-76
2021/01/23 09:08:26;;;;;;;90.85;47.17;;;;;;;3.57;82.48;98185.41;1787579;78;21107;-75
2021/01/23 09:10:53;;;;;;;88.20;41.77;;;;;;;3.62;82.50;98179.61;1786869;80;21155;-76
2021/01/23 09:13:19;;;;;;;89.75;45.00;;;;;;;3.63;82.55;98178.59;1787805;80;21195;-76
2021/01/23 09:15:46;;;;;;;63.17;32.23;;;;;;;3.61;82.57;98179.28;1766912;80;21194;-76
2021/01/23 09:18:12;;;;;;;125.20;65.83;;;;;;;3.60;82.59;98179.77;1767607;78;21714;-76
2021/01/23 09:20:39;;;;;;;114.82;58.30;;;;;;;3.59;82.59;98175.49;1764899;80;21167;-77
2021/01/23 09:23:05;;;;;;;111.97;54.15;;;;;;;3.61;82.59;98177.47;1770280;78;21181;-76
2021/01/23 09:25:31;;;;;;;72.65;34.43;;;;;;;3.64;82.60;98169.69;1771614;80;21624;-77
2021/01/23 09:27:58;;;;;;;67.10;32.13;;;;;;;3.65;82.62;98166.06;1767245;80;21147;-76
2021/01/23 09:30:24;;;;;;;67.75;30.92;;;;;;;3.66;82.61;98165.08;1769286;80;21604;-75
2021/01/23 09:32:51;;;;;;;72.42;34.70;;;;;;;3.70;82.65;98166.33;1773496;80;21548;-76
2021/01/23 09:35:17;;;;;;;88.70;40.83;;;;;;;3.71;82.70;98162.70;1772800;80;21185;-77
2021/01/23 09:37:43;;;;;;;97.67;46.92;;;;;;;3.73;82.73;98156.77;1767098;80;21596;-76
2021/01/23 09:40:11;;;;;;;93.20;42.40;;;;;;;3.76;82.77;98153.77;1741568;80;21171;-76
2021/01/23 09:42:37;;;;;;;99.25;47.70;;;;;;;3.78;82.79;98145.16;1740350;80;21081;-75
2021/01/23 09:45:05;;;;;;;93.65;45.40;;;;;;;3.80;82.83;98147.13;1739941;80;21164;-75
2021/01/23 09:47:31;;;;;;;96.25;46.45;;;;;;;3.83;82.82;98146.77;1746425;81;21215;-76
2021/01/23 09:50:02;;;;;;;88.03;44.70;;;;;;;3.86;82.86;98137.16;1737163;80;22267;-75
2021/01/23 09:52:28;;;;;;;94.20;48.10;;;;;;;3.88;82.86;98138.61;1742984;80;21246;-76
2021/01/23 09:54:56;;;;;;;92.20;45.73;;;;;;;3.88;82.85;98136.47;1746953;80;21188;-75
2021/01/23 09:57:22;;;;;;;75.70;39.55;;;;;;;3.89;82.88;98136.80;1745560;81;21143;-75
2021/01/23 09:59:48;;;;;;;76.60;40.80;;;;;;;3.90;82.90;98133.98;1744005;81;21557;-74
2021/01/23 10:02:15;;;;;;;73.95;39.05;;;;;;;3.94;82.89;98135.76;1747462;81;21175;-74
2021/01/23 10:04:41;;;;;;;151.72;61.53;;;;;;;3.96;82.92;98133.74;1746965;81;21172;-75
2021/01/23 10:07:08;;;;;;;204.85;93.92;;;;;;;3.97;82.98;98128.30;1745545;81;21121;-73
2021/01/23 10:09:34;;;;;;;162.95;75.20;;;;;;;3.98;82.99;98125.13;1741325;81;21199;-75
2021/01/23 10:12:01;;;;;;;99.85;55.52;;;;;;;3.96;83.01;98126.66;1746337;81;21716;-75
2021/01/23 10:14:27;;;;;;;103.62;59.05;;;;;;;3.95;83.02;98120.23;1771719;80;21168;-74
2021/01/23 10:16:53;;;;;;;134.35;71.55;;;;;;;3.97;83.04;98130.11;1740144;80;21649;-75
2021/01/23 10:19:19;;;;;;;125.85;66.40;;;;;;;4.00;83.06;98129.73;1745981;80;21180;-75
2021/01/23 10:21:46;;;;;;;125.80;66.02;;;;;;;4.02;83.06;98122.45;1742727;81;21177;-75
2021/01/23 10:24:12;;;;;;;166.97;85.12;;;;;;;4.03;83.09;98126.73;1740489;81;21120;-75
2021/01/23 10:26:38;;;;;;;140.35;65.25;;;;;;;4.02;83.10;98121.13;1740656;80;22570;-75
2021/01/23 10:29:05;;;;;;;119.55;57.95;;;;;;;4.01;83.10;98128.22;1768933;80;21196;-74
2021/01/23 10:31:31;;;;;;;109.10;53.70;;;;;;;4.01;83.12;98126.11;1747148;81;21186;-75
2021/01/23 10:33:57;;;;;;;106.85;54.95;;;;;;;4.03;83.12;98124.09;1752850;81;21192;-75
2021/01/23 10:36:24;;;;;;;83.27;45.98;;;;;;;4.05;83.14;98127.88;1754608;81;21199;-75
2021/01/23 10:38:50;;;;;;;77.95;46.63;;;;;;;4.02;83.16;98121.13;1739042;81;21183;-75
2021/01/23 10:41:19;;;;;;;82.53;49.08;;;;;;;4.06;83.18;98120.27;1725450;81;21197;-75
2021/01/23 10:43:45;;;;;;;79.62;45.80;;;;;;;4.07;83.23;98116.14;1732114;81;21853;-75
2021/01/23 10:46:12;;;;;;;79.53;45.75;;;;;;;4.06;83.21;98107.08;1728552;81;21224;-75
2021/01/23 10:48:41;;;;;;;91.50;52.38;;;;;;;4.03;83.26;98104.31;1725607;81;21525;-75
2021/01/23 10:53:51;;;;;;;186.90;99.52;;;;;;;4.08;83.30;98096.69;1792787;78;22047;-75
2021/01/23 10:56:18;;;;;;;163.37;89.42;;;;;;;4.00;83.28;98094.97;1777446;79;21092;-75
2021/01/23 10:58:44;;;;;;;87.62;49.42;;;;;;;4.00;83.30;98091.51;1775270;79;21629;-75
2021/01/23 11:01:10;;;;;;;78.47;43.25;;;;;;;4.03;83.31;98099.05;1746254;79;21201;-76
2021/01/23 11:03:37;;;;;;;73.92;42.00;;;;;;;4.04;83.33;98090.14;1775424;79;21612;-75
2021/01/23 11:06:05;;;;;;;73.75;41.23;;;;;;;4.02;83.37;98094.77;1774356;79;21200;-75
2021/01/23 11:08:31;;;;;;;110.90;57.83;;;;;;;4.00;83.38;98098.10;1745292;79;21163;-75
2021/01/23 11:11:00;;;;;;;131.32;66.35;;;;;;;3.99;83.43;98100.41;1784757;79;21231;-76
2021/01/23 11:13:26;;;;;;;161.05;82.30;;;;;;;3.96;83.44;98098.15;1765235;79;21154;-76
2021/01/23 11:15:54;;;;;;;127.72;63.38;;;;;;;3.96;83.48;98092.88;1770662;79;21175;-76
2021/01/23 11:18:20;;;;;;;106.07;53.38;;;;;;;3.96;83.50;98090.23;1773790;79;21432;-75
2021/01/23 11:20:49;;;;;;;141.90;67.80;;;;;;;3.95;83.54;98103.09;1774412;79;21608;-75
2021/01/23 11:23:15;;;;;;;120.42;67.78;;;;;;;3.95;83.58;98104.41;1791596;79;21299;-76
2021/01/23 11:25:41;;;;;;;111.83;62.88;;;;;;;3.94;83.58;98110.19;1796270;79;21608;-77
2021/01/23 11:28:07;;;;;;;101.45;53.95;;;;;;;3.92;83.58;98105.61;1795792;79;21198;-76
2021/01/23 11:30:35;;;;;;;101.67;55.10;;;;;;;3.88;83.59;98101.70;1795744;79;21148;-77
2021/01/23 11:35:46;;;;;;;128.27;69.60;;;;;;;3.90;83.64;98093.13;1814644;77;22673;-81
2021/01/23 11:38:12;;;;;;;82.22;46.80;;;;;;;3.82;83.66;98104.26;1787191;80;21120;-80
2021/01/23 11:40:38;;;;;;;70.20;39.13;;;;;;;3.77;83.70;98117.16;1786834;80;22059;-80
2021/01/23 11:43:05;;;;;;;88.40;46.37;;;;;;;3.75;83.74;98113.40;1787071;80;21179;-73
2021/01/23 11:45:31;;;;;;;88.70;46.80;;;;;;;3.74;83.76;98106.98;1786832;80;21131;-79